Time;durP1;ratioP1;P1;durP2;ratioP2;P2;SDS_P1;SDS_P2;PMS_P1;PMS_P2;Temp;Humidity;BMP_temperature;BMP_pressure;BME280_temperature;BME280_humidity;BME280_pressure;Samples;Min_cycle;Max_cycle;Signal;HPM_P1;HPM_P2
2024/01/31 00:02:16;;;;;;;2.20;1.60;;;18.20;70.30;;;;;;6268942;22;20137;-84
2024/01/31 00:04:42;;;;;;;3.10;1.45;;;18.20;70.30;;;;;;6242802;22;20155;-83
2024/01/31 00:07:09;;;;;;;4.07;1.63;;;18.20;70.10;;;;;;6268800;22;20136;-83
2024/01/31 00:09:36;;;;;;;3.13;1.40;;;18.20;70.30;;;;;;6268195;22;20144;-84
2024/01/31 00:12:01;;;;;;;2.35;1.60;;;18.20;70.30;;;;;;6243271;22;20202;-83
2024/01/31 00:14:27;;;;;;;2.13;1.20;;;18.20;70.40;;;;;;6243228;22;20136;-84
2024/01/31 00:16:55;;;;;;;5.50;1.38;;;18.20;70.50;;;;;;6293912;22;20179;-83
2024/01/31 00:19:23;;;;;;;3.53;1.45;;;18.30;70.60;;;;;;6243849;22;20144;-83
2024/01/31 00:21:50;;;;;;;3.60;1.13;;;18.20;70.50;;;;;;6268260;22;20629;-83
2024/01/31 00:24:16;;;;;;;2.00;1.35;;;18.10;70.40;;;;;;6268893;22;20140;-83
2024/01/31 00:26:42;;;;;;;1.70;1.15;;;18.20;70.20;;;;;;6243339;22;20159;-83
2024/01/31 00:29:10;;;;;;;4.88;1.40;;;18.20;70.60;;;;;;6268472;22;20143;-83
2024/01/31 00:31:35;;;;;;;1.77;1.08;;;18.20;70.50;;;;;;6268596;22;20243;-83
2024/01/31 00:34:01;;;;;;;2.30;1.20;;;18.20;70.50;;;;;;6243722;22;20137;-83
2024/01/31 00:36:28;;;;;;;2.13;1.30;;;18.20;70.10;;;;;;6244006;22;20171;-83
2024/01/31 00:38:56;;;;;;;2.95;1.30;;;18.20;70.30;;;;;;6268344;22;20144;-82
2024/01/31 00:41:23;;;;;;;2.03;1.23;;;18.20;70.20;;;;;;6268923;22;20133;-83
2024/01/31 00:43:50;;;;;;;4.18;1.48;;;18.20;70.40;;;;;;6268225;22;20195;-83
2024/01/31 00:46:16;;;;;;;2.25;1.20;;;18.20;70.20;;;;;;6244578;22;20151;-83
2024/01/31 00:48:44;;;;;;;2.10;1.50;;;18.20;70.40;;;;;;6267783;22;20163;-83
2024/01/31 00:51:10;;;;;;;2.90;1.27;;;18.20;70.30;;;;;;6243636;22;20197;-83
2024/01/31 00:53:38;;;;;;;2.58;1.25;;;18.20;70.40;;;;;;6294178;22;20217;-83
2024/01/31 00:56:04;;;;;;;1.35;1.10;;;18.20;70.50;;;;;;6268878;22;20131;-83
2024/01/31 00:58:32;;;;;;;1.40;1.15;;;18.20;70.40;;;;;;6267857;22;20592;-83
2024/01/31 01:00:58;;;;;;;2.00;1.40;;;18.20;70.00;;;;;;6244597;22;20193;-84
2024/01/31 01:03:26;;;;;;;2.88;1.30;;;18.20;70.20;;;;;;6245162;22;20140;-83
2024/01/31 01:05:52;;;;;;;2.38;1.50;;;18.20;70.30;;;;;;6269964;22;20166;-82
2024/01/31 01:08:19;;;;;;;2.63;1.40;;;18.20;70.40;;;;;;6270321;22;20133;-83
2024/01/31 01:10:44;;;;;;;2.35;1.30;;;18.20;70.40;;;;;;6269386;22;20152;-84
2024/01/31 01:13:10;;;;;;;2.42;1.42;;;18.20;70.40;;;;;;6243086;22;20222;-83
2024/01/31 01:15:36;;;;;;;3.15;1.50;;;18.20;70.40;;;;;;6239449;22;20141;-84
2024/01/31 01:18:03;;;;;;;2.67;1.27;;;18.10;70.40;;;;;;6240263;22;20192;-83
2024/01/31 01:20:30;;;;;;;2.35;1.48;;;18.10;70.40;;;;;;6264626;22;20155;-84
2024/01/31 01:22:57;;;;;;;1.65;1.20;;;18.10;70.40;;;;;;6239724;22;20141;-83
2024/01/31 01:25:27;;;;;;;2.25;1.33;;;18.20;70.40;;;;;;6265114;22;20137;-83
2024/01/31 01:27:57;;;;;;;2.92;1.33;;;18.10;71.30;;;;;;6291208;22;20133;-83
2024/01/31 01:30:23;;;;;;;1.35;1.10;;;18.10;70.50;;;;;;6265752;22;20140;-83
2024/01/31 01:32:50;;;;;;;2.72;1.40;;;18.10;70.20;;;;;;6265290;22;20192;-83
2024/01/31 01:35:16;;;;;;;2.15;1.40;;;18.10;70.60;;;;;;6240447;22;20141;-83
2024/01/31 01:37:42;;;;;;;2.35;1.33;;;18.10;70.30;;;;;;6239879;22;20175;-84
2024/01/31 01:40:15;;;;;;;3.67;1.23;;;18.20;70.20;;;;;;6290571;22;20158;-83
2024/01/31 01:42:42;;;;;;;1.88;1.25;;;18.10;70.00;;;;;;6265611;22;20145;-83
2024/01/31 01:45:09;;;;;;;4.30;1.50;;;18.10;70.30;;;;;;6239353;22;20538;-83
2024/01/31 01:47:35;;;;;;;3.03;1.48;;;18.10;70.40;;;;;;6239724;22;20646;-83
2024/01/31 01:50:02;;;;;;;2.85;1.20;;;18.10;70.00;;;;;;6239999;22;20149;-83
2024/01/31 01:52:31;;;;;;;3.15;1.30;;;18.20;69.90;;;;;;6288710;22;20155;-83
2024/01/31 01:54:57;;;;;;;3.00;1.23;;;18.20;70.10;;;;;;6240166;22;20137;-84
2024/01/31 01:57:25;;;;;;;1.77;1.20;;;18.10;70.30;;;;;;6239521;22;20255;-83
2024/01/31 01:59:53;;;;;;;2.33;1.30;;;18.10;69.90;;;;;;6290430;22;20152;-83
2024/01/31 02:02:21;;;;;;;1.30;1.00;;;18.20;69.90;;;;;;6266392;22;20208;-83
2024/01/31 02:04:48;;;;;;;2.65;1.50;;;18.20;70.10;;;;;;6239701;22;20231;-84
2024/01/31 02:07:24;;;;;;;4.00;1.45;;;18.10;70.00;;;;;;6264803;22;20140;-83
2024/01/31 02:10:04;;;;;;;;;;;;;;;;;;;;;
2024/01/31 02:12:22;;;;;;;3.38;1.30;;;18.10;70.30;;;;;;6282980;22;20196;-83
2024/01/31 02:14:50;;;;;;;1.77;1.13;;;18.10;70.30;;;;;;6240325;22;20484;-83
2024/01/31 02:17:18;;;;;;;3.55;1.30;;;18.10;70.30;;;;;;6239926;22;20169;-83
2024/01/31 02:19:44;;;;;;;1.85;1.27;;;18.10;70.10;;;;;;6238486;22;20144;-83
2024/01/31 02:22:19;;;;;;;2.08;1.10;;;18.10;70.20;;;;;;6239370;22;20152;-83
2024/01/31 02:24:47;;;;;;;1.90;1.10;;;18.10;70.30;;;;;;6263918;22;20140;-83
2024/01/31 02:27:15;;;;;;;2.97;1.48;;;18.10;70.20;;;;;;6239380;22;20145;-83
2024/01/31 02:32:16;;;;;;;3.58;1.20;;;18.00;70.30;;;;;;6262798;22;20652;-83
2024/01/31 02:34:42;;;;;;;3.67;1.50;;;18.10;70.10;;;;;;6263318;22;20237;-83
2024/01/31 02:38:17;;;;;;;1.60;1.20;;;18.10;69.90;;;;;;6263800;22;20184;-83
2024/01/31 02:40:43;;;;;;;1.75;1.05;;;18.10;70.00;;;;;;6078116;23;20265;-82
2024/01/31 02:43:13;;;;;;;3.03;1.30;;;18.10;70.10;;;;;;6079194;23;20581;-82
2024/01/31 02:45:39;;;;;;;1.92;1.10;;;18.10;70.00;;;;;;6080425;23;20154;-82
2024/01/31 02:48:08;;;;;;;4.22;1.35;;;18.20;69.60;;;;;;6080244;23;20146;-82
2024/01/31 02:50:38;;;;;;;1.27;1.05;;;18.10;69.90;;;;;;6055138;23;20153;-82
2024/01/31 02:53:07;;;;;;;2.03;1.30;;;18.10;69.90;;;;;;6055045;23;20251;-82
2024/01/31 02:55:37;;;;;;;1.85;1.20;;;18.10;70.00;;;;;;6054136;23;20243;-83
2024/01/31 02:58:12;;;;;;;1.63;1.33;;;18.10;69.80;;;;;;6079345;23;20257;-83
2024/01/31 03:00:37;;;;;;;1.83;1.55;;;18.10;69.50;;;;;;6079801;23;20266;-83
2024/01/31 03:03:03;;;;;;;2.47;1.30;;;18.10;69.80;;;;;;6055759;23;20150;-83
2024/01/31 03:05:29;;;;;;;1.45;1.02;;;18.10;69.90;;;;;;6079503;23;20154;-83
2024/01/31 03:07:56;;;;;;;1.33;1.20;;;18.10;69.80;;;;;;6055498;23;20152;-82
2024/01/31 03:10:25;;;;;;;2.63;1.25;;;18.10;69.70;;;;;;6238576;22;20224;-83
2024/01/31 03:12:52;;;;;;;2.80;1.35;;;18.10;69.90;;;;;;6289090;22;20162;-83
2024/01/31 03:15:19;;;;;;;1.73;1.17;;;18.10;69.60;;;;;;6238495;22;20149;-82
2024/01/31 03:17:45;;;;;;;3.05;1.10;;;18.10;69.60;;;;;;6238402;22;20169;-83
2024/01/31 03:20:11;;;;;;;1.90;1.25;;;18.10;69.90;;;;;;6239341;22;20144;-83
2024/01/31 03:22:39;;;;;;;1.67;1.20;;;18.20;69.90;;;;;;6264100;22;20607;-82
2024/01/31 03:25:10;;;;;;;2.05;1.30;;;18.10;70.00;;;;;;6237328;22;20140;-82
2024/01/31 03:27:36;;;;;;;1.42;1.20;;;18.00;69.70;;;;;;6290055;22;20587;-82
2024/01/31 03:30:03;;;;;;;1.88;1.27;;;18.10;70.00;;;;;;6238886;22;20148;-82
2024/01/31 03:32:31;;;;;;;1.98;1.40;;;18.10;69.60;;;;;;6237964;22;20137;-83
2024/01/31 03:34:57;;;;;;;1.73;1.20;;;18.10;69.90;;;;;;6238304;22;20137;-82
2024/01/31 03:37:23;;;;;;;1.60;1.30;;;18.10;69.90;;;;;;6264645;22;20180;-83
2024/01/31 03:39:48;;;;;;;2.35;1.17;;;18.00;69.80;;;;;;6263558;22;20568;-83
2024/01/31 03:42:18;;;;;;;2.38;1.25;;;18.10;69.50;;;;;;6238087;22;20206;-83
2024/01/31 03:44:44;;;;;;;2.42;1.35;;;18.10;69.80;;;;;;6289402;22;20129;-83
2024/01/31 03:47:10;;;;;;;1.52;1.20;;;18.10;69.70;;;;;;6264007;22;20137;-83
2024/01/31 03:49:37;;;;;;;2.35;1.27;;;18.10;69.90;;;;;;6267596;22;20195;-83
2024/01/31 03:52:04;;;;;;;1.88;1.20;;;18.10;69.80;;;;;;6242088;22;20162;-82
2024/01/31 03:54:31;;;;;;;2.20;1.40;;;18.10;71.00;;;;;;6243919;22;20143;-83
2024/01/31 03:56:59;;;;;;;1.92;1.50;;;18.00;70.00;;;;;;6294063;22;20202;-83
2024/01/31 03:59:26;;;;;;;3.28;1.33;;;18.00;69.90;;;;;;6268989;22;20125;-82
2024/01/31 04:01:53;;;;;;;2.75;1.33;;;18.10;70.10;;;;;;6242951;22;20156;-83
2024/01/31 04:04:20;;;;;;;1.52;1.20;;;18.00;70.00;;;;;;6269116;22;20158;-83
2024/01/31 04:06:46;;;;;;;2.08;1.23;;;18.10;69.70;;;;;;6242390;22;20156;-83
2024/01/31 04:09:13;;;;;;;1.85;1.52;;;18.10;69.80;;;;;;6294603;22;20212;-83
2024/01/31 04:11:39;;;;;;;2.80;1.45;;;18.10;69.60;;;;;;6242817;22;20199;-83
2024/01/31 04:14:08;;;;;;;3.17;1.42;;;18.00;70.00;;;;;;6243637;22;20203;-83
2024/01/31 04:16:34;;;;;;;2.10;1.13;;;18.10;70.70;;;;;;6242557;22;20514;-83
2024/01/31 04:19:00;;;;;;;1.98;1.33;;;18.00;69.90;;;;;;6242832;22;20155;-83
2024/01/31 04:21:29;;;;;;;1.75;1.20;;;18.00;70.10;;;;;;6243017;22;20470;-82
2024/01/31 04:23:57;;;;;;;1.70;1.10;;;18.00;69.90;;;;;;6294885;22;20239;-82
2024/01/31 04:26:23;;;;;;;2.92;1.35;;;18.00;70.10;;;;;;6243551;22;20207;-82
2024/01/31 04:28:52;;;;;;;3.03;1.23;;;18.00;70.00;;;;;;6242471;22;20152;-82
2024/01/31 04:31:22;;;;;;;2.92;1.30;;;18.00;69.80;;;;;;6294352;22;20171;-83
2024/01/31 04:33:48;;;;;;;2.95;1.25;;;18.00;69.40;;;;;;6294849;22;20133;-83
2024/01/31 04:36:14;;;;;;;1.85;1.13;;;18.10;69.60;;;;;;6269629;22;20163;-84
2024/01/31 04:38:40;;;;;;;2.75;1.05;;;18.00;69.80;;;;;;6245746;22;20151;-83
2024/01/31 04:41:05;;;;;;;2.10;1.00;;;18.10;69.80;;;;;;6270938;22;20136;-83
2024/01/31 04:43:32;;;;;;;1.73;1.20;;;18.00;70.00;;;;;;6270261;22;20131;-83
2024/01/31 04:45:58;;;;;;;1.48;1.13;;;17.90;70.00;;;;;;6244089;22;20144;-83
2024/01/31 04:48:24;;;;;;;3.22;1.38;;;18.00;70.00;;;;;;6244896;22;20207;-83
2024/01/31 04:50:50;;;;;;;2.08;1.30;;;18.00;70.10;;;;;;6245150;22;20494;-83
2024/01/31 04:53:18;;;;;;;1.75;1.35;;;18.00;70.00;;;;;;6244071;22;20156;-83
2024/01/31 04:55:44;;;;;;;2.13;1.30;;;18.00;70.10;;;;;;6233145;23;20149;-83
2024/01/31 04:58:11;;;;;;;1.20;1.10;;;18.00;69.90;;;;;;6259698;23;20187;-83
2024/01/31 05:00:37;;;;;;;3.00;1.38;;;18.00;69.90;;;;;;6209006;23;20180;-82
2024/01/31 05:03:08;;;;;;;1.23;1.10;;;17.90;70.00;;;;;;6208141;23;20130;-82
2024/01/31 05:05:36;;;;;;;2.60;1.17;;;18.00;70.00;;;;;;6232877;23;20456;-83
2024/01/31 05:08:04;;;;;;;1.40;1.20;;;18.00;69.90;;;;;;6183511;23;20164;-82
2024/01/31 05:10:33;;;;;;;1.95;1.30;;;18.00;69.50;;;;;;6233515;23;20153;-83
2024/01/31 05:13:00;;;;;;;1.63;1.02;;;18.00;69.80;;;;;;6233695;23;20695;-83
2024/01/31 05:15:26;;;;;;;1.50;1.10;;;18.00;70.70;;;;;;6208057;23;20150;-83
2024/01/31 05:17:53;;;;;;;1.77;1.10;;;18.00;69.90;;;;;;6208336;23;20180;-83
2024/01/31 05:20:19;;;;;;;1.58;1.10;;;18.00;69.90;;;;;;6207955;23;20145;-82
2024/01/31 05:22:45;;;;;;;2.22;1.30;;;18.00;70.00;;;;;;6207999;23;20245;-82
2024/01/31 05:25:14;;;;;;;2.33;1.35;;;18.00;69.90;;;;;;6208591;23;20142;-82
2024/01/31 05:27:43;;;;;;;1.92;1.10;;;18.00;70.00;;;;;;6240197;22;20198;-82
2024/01/31 05:30:10;;;;;;;2.00;1.30;;;18.00;69.90;;;;;;6270030;22;20510;-82
2024/01/31 05:32:37;;;;;;;1.60;1.23;;;18.00;69.90;;;;;;6270502;22;20207;-82
2024/01/31 05:35:03;;;;;;;2.08;1.38;;;18.00;69.90;;;;;;6269078;22;20174;-82
2024/01/31 05:37:31;;;;;;;1.85;1.50;;;18.00;69.90;;;;;;6270250;22;20183;-82
2024/01/31 05:39:59;;;;;;;2.13;1.20;;;18.00;69.90;;;;;;6244227;22;20140;-83
2024/01/31 05:42:24;;;;;;;2.53;1.15;;;18.00;69.90;;;;;;6243803;22;20145;-82
2024/01/31 05:44:53;;;;;;;2.08;1.13;;;18.00;69.80;;;;;;6244619;22;20143;-82
2024/01/31 05:47:19;;;;;;;1.85;1.33;;;18.00;69.80;;;;;;6245170;22;20139;-82
2024/01/31 05:49:46;;;;;;;3.20;1.40;;;18.00;69.80;;;;;;6244769;22;20174;-83
2024/01/31 05:52:12;;;;;;;1.55;1.02;;;18.00;69.90;;;;;;6269222;22;20195;-83
2024/01/31 05:54:40;;;;;;;1.33;1.05;;;17.90;69.90;;;;;;6271309;22;20140;-83
2024/01/31 05:57:06;;;;;;;1.92;1.30;;;17.90;69.90;;;;;;6295381;22;20175;-82
2024/01/31 05:59:40;;;;;;;2.78;1.33;;;18.00;69.30;;;;;;6295470;22;20132;-83
2024/01/31 06:02:08;;;;;;;2.60;1.30;;;18.10;69.50;;;;;;6244928;22;20140;-83
2024/01/31 06:04:34;;;;;;;2.63;1.17;;;18.00;69.70;;;;;;6244272;22;20151;-83
2024/01/31 06:07:02;;;;;;;1.73;1.10;;;18.00;69.70;;;;;;6243518;22;20579;-82
2024/01/31 06:09:30;;;;;;;2.70;1.25;;;18.00;69.70;;;;;;6245078;22;20140;-82
2024/01/31 06:11:55;;;;;;;3.20;1.20;;;18.00;69.70;;;;;;6243680;22;20151;-83
2024/01/31 06:14:27;;;;;;;1.35;1.17;;;17.90;69.60;;;;;;6243989;22;20196;-83
2024/01/31 06:16:58;;;;;;;2.20;1.48;;;17.90;69.70;;;;;;6293991;22;20182;-84
2024/01/31 06:19:27;;;;;;;3.17;1.13;;;18.00;70.00;;;;;;6200807;23;20174;-83
2024/01/31 06:21:55;;;;;;;1.33;1.13;;;17.90;69.70;;;;;;6174847;23;20157;-83
2024/01/31 06:24:20;;;;;;;1.70;1.35;;;17.90;69.70;;;;;;6165284;23;20158;-84
2024/01/31 06:26:50;;;;;;;1.58;1.10;;;17.90;69.90;;;;;;6116758;23;20159;-83
2024/01/31 06:29:18;;;;;;;1.92;1.40;;;17.90;69.70;;;;;;6141729;23;20140;-83
2024/01/31 06:31:51;;;;;;;2.53;1.20;;;17.90;69.70;;;;;;6118688;23;20143;-84
2024/01/31 06:34:22;;;;;;;2.13;1.23;;;17.90;69.70;;;;;;6118726;23;20218;-84
2024/01/31 06:36:48;;;;;;;3.83;1.35;;;18.00;69.80;;;;;;6119363;23;20175;-84
2024/01/31 06:39:15;;;;;;;1.80;1.20;;;17.90;70.50;;;;;;6083860;23;20252;-84
2024/01/31 06:41:50;;;;;;;1.52;1.30;;;18.00;69.80;;;;;;6108716;23;20181;-84
2024/01/31 06:44:16;;;;;;;2.90;1.40;;;17.90;69.80;;;;;;6122787;23;20501;-84
2024/01/31 06:46:52;;;;;;;1.95;1.50;;;17.90;69.80;;;;;;6166539;23;20142;-84
2024/01/31 06:49:43;;;;;;;2.10;1.13;;;18.00;69.80;;;;;;6131689;23;20223;-85
2024/01/31 06:52:24;;;;;;;1.77;1.20;;;17.90;69.50;;;;;;6053494;23;20245;-83
2024/01/31 06:54:54;;;;;;;1.27;1.17;;;18.00;69.60;;;;;;6072904;23;20156;-84
2024/01/31 06:57:25;;;;;;;1.65;1.15;;;18.00;69.70;;;;;;6050190;23;20181;-83
2024/01/31 06:59:58;;;;;;;1.92;1.23;;;18.00;69.70;;;;;;6022231;23;20494;-84
2024/01/31 07:02:28;;;;;;;1.48;1.27;;;17.90;69.60;;;;;;5987867;24;20171;-83
2024/01/31 07:04:58;;;;;;;2.20;1.40;;;17.90;69.60;;;;;;5942634;24;20168;-83
2024/01/31 07:07:29;;;;;;;1.83;1.35;;;17.90;69.20;;;;;;5965586;24;20613;-84
2024/01/31 07:09:55;;;;;;;1.63;1.10;;;17.90;69.40;;;;;;5965588;24;20313;-83
2024/01/31 07:12:24;;;;;;;2.08;1.17;;;18.00;69.00;;;;;;5965337;24;20530;-83
2024/01/31 07:14:55;;;;;;;1.77;1.20;;;18.00;69.10;;;;;;5942303;24;20152;-83
2024/01/31 07:17:48;;;;;;;2.20;1.30;;;18.00;68.70;;;;;;5944897;24;20213;-83
2024/01/31 07:20:19;;;;;;;1.88;1.20;;;18.10;68.50;;;;;;5919196;24;20168;-84
2024/01/31 07:22:52;;;;;;;1.58;1.20;;;18.10;68.50;;;;;;6006912;23;20163;-83
2024/01/31 07:25:18;;;;;;;1.52;1.30;;;18.10;68.30;;;;;;6069765;23;20167;-83
2024/01/31 07:27:56;;;;;;;1.27;1.17;;;18.20;67.90;;;;;;6075650;23;20191;-84
2024/01/31 07:33:44;;;;;;;2.13;1.00;;;18.10;68.20;;;;;;6026350;23;20154;-84
2024/01/31 07:36:10;;;;;;;1.75;1.30;;;18.10;67.60;;;;;;5997586;23;20183;-83
2024/01/31 07:38:45;;;;;;;1.42;1.00;;;18.10;67.90;;;;;;5997701;23;20159;-84
2024/01/31 07:41:11;;;;;;;1.70;1.40;;;18.20;67.30;;;;;;6022813;23;20149;-84
2024/01/31 07:43:47;;;;;;;1.67;1.15;;;18.20;66.60;;;;;;6046590;23;20187;-85
2024/01/31 07:46:16;;;;;;;1.52;1.20;;;18.20;66.80;;;;;;6216478;22;20199;-83
2024/01/31 07:48:43;;;;;;;2.80;1.13;;;18.20;67.30;;;;;;6289282;22;20149;-82
2024/01/31 07:51:13;;;;;;;2.58;1.33;;;18.20;67.70;;;;;;6263542;22;20135;-82
2024/01/31 07:53:55;;;;;;;1.95;1.10;;;18.20;67.80;;;;;;6263434;22;20579;-82
2024/01/31 07:57:02;;;;;;;1.30;1.10;;;18.20;67.60;;;;;;6263407;22;20152;-83
2024/01/31 07:59:31;;;;;;;1.17;0.95;;;18.10;67.70;;;;;;6264142;22;20268;-84
2024/01/31 08:01:57;;;;;;;1.30;1.20;;;18.20;68.30;;;;;;6261355;22;20181;-83
2024/01/31 08:04:23;;;;;;;1.17;1.08;;;18.10;67.40;;;;;;6237351;22;20144;-84
2024/01/31 08:06:58;;;;;;;1.67;1.30;;;18.20;67.70;;;;;;6238578;22;20494;-83
2024/01/31 08:09:24;;;;;;;1.42;1.08;;;18.20;67.80;;;;;;6263308;22;20177;-84
2024/01/31 08:57:29;;;;;;;2.00;1.20;;;18.40;66.30;;;;;;6334409;22;20260;-87
2024/01/31 09:00:07;;;;;;;1.48;1.00;;;18.30;67.60;;;;;;6267138;22;20157;-86
2024/01/31 09:03:28;;;;;;;0.75;0.73;;;18.40;66.30;;;;;;6165750;23;20155;-87
2024/01/31 09:05:36;;;;;;;3.50;1.17;;;18.40;66.80;;;;;;6159061;23;20541;-86
2024/01/31 09:08:09;;;;;;;1.20;1.00;;;18.40;66.80;;;;;;6102891;23;20195;-87
2024/01/31 09:10:45;;;;;;;1.45;1.05;;;18.40;66.60;;;;;;6073619;23;20152;-86
2024/01/31 12:07:24;;;;;;;1.75;0.60;;;18.70;64.90;;;;;;6365112;22;20203;-87
2024/01/31 12:09:57;;;;;;;0.63;0.63;;;18.80;63.40;;;;;;6271322;22;20216;-87
2024/01/31 12:13:17;;;;;;;1.02;0.60;;;18.80;64.50;;;;;;6268893;22;20146;-85
2024/01/31 12:15:47;;;;;;;0.63;0.63;;;18.80;65.10;;;;;;6294979;22;20598;-86
2024/01/31 12:18:20;;;;;;;0.52;0.50;;;18.80;64.70;;;;;;6270097;22;20172;-86
2024/01/31 12:21:10;;;;;;;0.85;0.60;;;18.70;65.30;;;;;;6246132;22;20155;-85
2024/01/31 12:23:55;;;;;;;1.35;0.60;;;18.70;64.50;;;;;;6079306;23;20153;-86
2024/01/31 12:26:58;;;;;;;;;;;;;;;;;;;;;
2024/01/31 12:29:35;;;;;;;1.15;0.73;;;18.60;65.20;;;;;;6023535;23;20217;-85
2024/01/31 12:32:05;;;;;;;0.65;0.65;;;18.70;65.40;;;;;;5999828;23;20180;-85
2024/01/31 12:34:31;;;;;;;1.17;0.70;;;18.70;64.00;;;;;;5999344;23;20731;-87
2024/01/31 12:37:05;;;;;;;1.05;0.50;;;18.70;64.50;;;;;;5998437;23;20171;-87
2024/01/31 12:42:03;;;;;;;1.17;0.60;;;18.70;64.30;;;;;;6277551;22;20658;-85
2024/01/31 12:44:47;;;;;;;0.88;0.70;;;18.80;63.70;;;;;;6240506;22;20151;-86
2024/01/31 12:47:16;;;;;;;1.98;0.70;;;18.80;64.10;;;;;;6177292;23;20260;-86
2024/01/31 12:49:46;;;;;;;1.48;0.70;;;18.80;64.60;;;;;;6176598;23;20181;-84
2024/01/31 12:52:21;;;;;;;1.90;0.60;;;18.80;64.00;;;;;;6151303;23;20214;-87
2024/01/31 12:55:02;;;;;;;1.42;0.55;;;18.90;63.60;;;;;;6156112;23;20146;-85
2024/01/31 12:57:32;;;;;;;0.85;0.50;;;18.90;63.30;;;;;;6140455;23;20192;-85
2024/01/31 12:59:58;;;;;;;2.30;0.60;;;18.90;63.80;;;;;;6102904;23;20669;-88
2024/01/31 13:02:24;;;;;;;0.85;0.60;;;18.80;64.20;;;;;;6093563;23;20557;-87
2024/01/31 13:04:55;;;;;;;1.30;0.60;;;18.80;63.50;;;;;;6096124;23;20160;-87
2024/01/31 13:07:44;;;;;;;0.80;0.70;;;18.80;63.00;;;;;;6074122;23;20164;-87
2024/01/31 13:35:27;;;;;;;0.70;0.57;;;18.80;65.00;;;;;;5940298;24;20180;-89
2024/01/31 13:38:55;;;;;;;0.70;0.52;;;18.80;64.10;;;;;;5964950;24;20549;-88
2024/01/31 13:45:40;;;;;;;1.98;0.70;;;18.80;64.00;;;;;;5782435;24;20195;-90
2024/01/31 13:48:59;;;;;;;6.45;0.70;;;18.80;62.70;;;;;;5779361;24;20156;-89
2024/01/31 15:31:21;;;;;;;5.65;0.80;;;19.10;62.40;;;;;;6284977;22;20156;-87
2024/01/31 15:33:59;;;;;;;2.97;0.70;;;19.10;62.40;;;;;;6258780;22;20204;-87
2024/01/31 15:36:26;;;;;;;5.47;1.15;;;19.10;63.20;;;;;;6287771;22;20132;-86
2024/01/31 15:39:28;;;;;;;7.72;0.77;;;19.10;63.50;;;;;;6287347;22;20161;-87
2024/01/31 16:43:44;;;;;;;7.22;1.00;;;19.30;64.40;;;;;;6235346;22;20260;-86
2024/01/31 16:46:13;;;;;;;2.35;0.90;;;19.30;64.80;;;;;;6232347;23;20154;-87
2024/01/31 16:50:14;;;;;;;4.95;0.70;;;19.30;64.40;;;;;;6184812;23;20209;-84
2024/01/31 16:56:47;;;;;;;8.45;1.05;;;19.40;64.30;;;;;;5998900;23;20155;-85
2024/01/31 16:59:25;;;;;;;11.50;1.20;;;19.40;63.80;;;;;;5974460;24;20223;-85
2024/01/31 17:02:22;;;;;;;6.93;0.90;;;19.40;64.40;;;;;;5968497;24;20292;-84
2024/01/31 17:05:24;;;;;;;4.13;0.85;;;19.40;63.80;;;;;;5896217;24;20194;-84
2024/01/31 17:07:53;;;;;;;6.80;0.98;;;19.50;64.80;;;;;;5888015;24;20214;-86
2024/01/31 17:14:32;;;;;;;;;;;;;;;;;;;;;
2024/01/31 18:05:33;;;;;;;9.23;1.10;;;19.60;64.80;;;;;;5606526;23;11147029;-86
2024/01/31 18:07:59;;;;;;;4.43;1.27;;;19.60;65.00;;;;;;6056752;23;20391;-85
2024/01/31 18:10:55;;;;;;;5.20;1.20;;;19.60;64.10;;;;;;6034019;23;20161;-85
2024/01/31 18:13:24;;;;;;;4.30;1.00;;;19.60;64.80;;;;;;6052797;23;20153;-85
2024/01/31 18:15:54;;;;;;;5.18;1.20;;;19.60;64.50;;;;;;6032969;23;20321;-86
2024/01/31 18:18:23;;;;;;;5.10;1.30;;;19.70;64.80;;;;;;6034893;23;20169;-86
2024/01/31 18:20:58;;;;;;;3.83;1.10;;;19.60;65.30;;;;;;6057188;23;20127;-85
2024/01/31 18:23:28;;;;;;;4.93;1.52;;;19.70;64.50;;;;;;6010709;23;20232;-84
2024/01/31 18:25:56;;;;;;;4.90;1.30;;;19.70;64.50;;;;;;6034280;23;20145;-83
2024/01/31 18:29:11;;;;;;;4.90;1.15;;;19.60;65.20;;;;;;6057457;23;20142;-84
2024/01/31 18:31:55;;;;;;;4.05;1.25;;;19.60;65.60;;;;;;6031916;23;20378;-85
2024/01/31 18:35:03;;;;;;;2.25;1.08;;;19.60;64.60;;;;;;6029328;23;20146;-84
2024/01/31 18:37:17;;;;;;;4.75;1.20;;;19.60;65.60;;;;;;6039673;23;20165;-80
2024/01/31 18:40:22;;;;;;;;;;;;;;;;;;;;;
2024/01/31 18:42:59;;;;;;;13.38;1.30;;;19.60;64.90;;;;;;6027258;23;20208;-83
2024/01/31 18:45:27;;;;;;;6.35;1.30;;;19.60;65.30;;;;;;6048052;23;20134;-86
2024/01/31 18:47:52;;;;;;;1.77;0.73;;;19.70;65.70;;;;;;6022985;23;20173;-84
2024/01/31 18:50:46;;;;;;;3.80;1.10;;;19.60;65.40;;;;;;6024460;23;20154;-84
2024/01/31 18:53:13;;;;;;;4.65;1.23;;;19.70;66.00;;;;;;5962147;24;20215;-83
2024/01/31 18:58:54;;;;;;;4.38;1.20;;;19.60;65.70;;;;;;5903872;24;20161;-84
2024/01/31 19:01:28;;;;;;;4.68;0.95;;;19.60;65.30;;;;;;5880317;24;20153;-84
2024/01/31 19:07:21;;;;;;;5.88;1.10;;;19.60;65.70;;;;;;5893880;24;20268;-83
2024/01/31 19:09:47;;;;;;;4.15;1.13;;;19.60;65.60;;;;;;5855904;24;20157;-86
2024/01/31 19:12:20;;;;;;;3.53;0.90;;;19.60;65.20;;;;;;5855908;24;20264;-87
2024/01/31 19:14:51;;;;;;;4.60;1.20;;;19.60;65.40;;;;;;5879282;24;20183;-85
2024/01/31 19:17:30;;;;;;;2.38;0.80;;;19.70;64.60;;;;;;5827482;24;20175;-87
2024/01/31 19:20:00;;;;;;;5.28;1.05;;;19.70;65.60;;;;;;5833149;24;20162;-86
2024/01/31 19:22:30;;;;;;;2.78;0.90;;;19.60;65.80;;;;;;5807829;24;20376;-84
2024/01/31 19:25:09;;;;;;;7.47;1.13;;;19.50;65.60;;;;;;5830597;24;20154;-85
2024/01/31 19:31:15;;;;;;;8.02;1.08;;;19.40;65.80;;;;;;5873429;24;20172;-87
2024/01/31 19:33:48;;;;;;;4.45;0.82;;;19.50;65.60;;;;;;5851319;24;20167;-87
2024/01/31 19:36:52;;;;;;;;;;;;;;;;;;;;;
2024/01/31 19:39:32;;;;;;;4.82;1.10;;;19.50;65.70;;;;;;5699109;25;20242;-85
2024/01/31 19:42:01;;;;;;;4.32;1.13;;;19.50;67.00;;;;;;5717273;25;20197;-87
2024/01/31 19:44:27;;;;;;;3.90;1.00;;;19.40;66.20;;;;;;5723813;25;20161;-87
2024/01/31 19:47:00;;;;;;;3.90;1.00;;;19.40;65.80;;;;;;5721103;25;20178;-88
2024/01/31 19:49:34;;;;;;;3.40;0.90;;;19.40;66.60;;;;;;5746968;25;20201;-88
2024/01/31 19:52:01;;;;;;;2.40;1.10;;;19.40;67.40;;;;;;5746440;25;20163;-86
2024/01/31 19:54:28;;;;;;;3.72;1.05;;;19.50;65.80;;;;;;5745075;25;20204;-84
2024/01/31 19:56:56;;;;;;;3.15;1.13;;;19.50;66.10;;;;;;5724513;25;20230;-86
2024/01/31 19:59:22;;;;;;;5.65;1.30;;;19.50;66.20;;;;;;5744896;25;20191;-87
2024/01/31 20:01:57;;;;;;;5.57;1.15;;;19.40;65.80;;;;;;5744494;25;20189;-87
2024/01/31 20:04:24;;;;;;;4.05;1.17;;;19.50;65.80;;;;;;5742642;25;20168;-85
2024/01/31 20:06:51;;;;;;;2.65;1.02;;;19.30;65.60;;;;;;5787454;24;20200;-84
2024/01/31 20:09:17;;;;;;;3.60;1.00;;;19.40;65.20;;;;;;5871836;24;20159;-84
2024/01/31 20:11:46;;;;;;;3.72;0.90;;;19.40;65.40;;;;;;5826680;24;20170;-83
2024/01/31 20:14:12;;;;;;;3.55;0.95;;;19.40;65.40;;;;;;5855990;24;20164;-85
2024/01/31 20:16:38;;;;;;;2.67;1.08;;;19.30;65.60;;;;;;5856277;24;20157;-85
2024/01/31 20:19:03;;;;;;;2.95;1.00;;;19.40;65.70;;;;;;5879621;24;20168;-84
2024/01/31 20:21:29;;;;;;;3.38;1.00;;;19.30;65.00;;;;;;5855167;24;20149;-83
2024/01/31 20:23:56;;;;;;;4.65;1.00;;;19.30;64.90;;;;;;5875675;24;20215;-83
2024/01/31 20:26:22;;;;;;;4.50;0.85;;;19.30;65.50;;;;;;5851487;24;20471;-85
2024/01/31 20:28:48;;;;;;;3.97;1.02;;;19.30;65.20;;;;;;5850999;24;20281;-83
2024/01/31 20:31:14;;;;;;;3.03;1.08;;;19.20;65.10;;;;;;5850740;24;20161;-85
2024/01/31 20:33:41;;;;;;;2.40;1.02;;;19.20;65.80;;;;;;5851638;24;20161;-85
2024/01/31 20:36:08;;;;;;;3.55;1.20;;;19.10;65.80;;;;;;5832002;24;20614;-86
2024/01/31 20:38:36;;;;;;;4.78;0.90;;;19.10;66.00;;;;;;5854392;24;20188;-84
2024/01/31 20:41:02;;;;;;;1.48;0.93;;;19.00;66.50;;;;;;5970849;23;20166;-87
2024/01/31 20:43:27;;;;;;;2.80;1.13;;;18.90;66.00;;;;;;6006013;23;20191;-86
2024/01/31 20:46:18;;;;;;;6.43;1.10;;;19.00;65.80;;;;;;5937516;24;20180;-90
2024/01/31 20:49:19;;;;;;;3.80;0.90;;;19.00;65.50;;;;;;5931225;24;20164;-90
2024/01/31 20:55:22;;;;;;;1.98;0.95;;;18.90;66.40;;;;;;5828174;24;20171;-84
2024/01/31 20:57:51;;;;;;;3.58;0.93;;;18.80;66.80;;;;;;5821347;24;20164;-88
2024/01/31 21:00:30;;;;;;;2.80;1.10;;;18.80;66.40;;;;;;5797915;24;20164;-89
2024/01/31 21:03:12;;;;;;;3.65;1.05;;;18.80;66.40;;;;;;5796441;24;20203;-88
2024/01/31 21:05:46;;;;;;;2.22;0.75;;;18.90;66.60;;;;;;5797744;24;20195;-89
2024/01/31 21:08:22;;;;;;;3.63;1.00;;;18.80;66.10;;;;;;5791444;24;20243;-88
2024/01/31 21:10:58;;;;;;;1.92;0.90;;;18.80;66.00;;;;;;5770752;24;20482;-88
2024/01/31 21:13:26;;;;;;;3.45;1.10;;;18.90;66.70;;;;;;5731016;24;20180;-88
2024/01/31 21:16:01;;;;;;;3.72;1.00;;;18.70;66.70;;;;;;5823034;24;20171;-89
2024/01/31 21:18:38;;;;;;;;;;;;;;;;;;;;;
2024/01/31 21:21:19;;;;;;;2.80;0.80;;;18.80;66.50;;;;;;5802330;24;20695;-89
2024/01/31 21:24:11;;;;;;;2.97;1.10;;;18.80;67.10;;;;;;5793819;24;20230;-89
2024/01/31 21:26:50;;;;;;;1.73;1.00;;;18.80;67.20;;;;;;5774495;24;20243;-89